Time;durP1;ratioP1;P1;durP2;ratioP2;P2;SDS_P1;SDS_P2;PMS_P1;PMS_P2;Temp;Humidity;BMP_temperature;BMP_pressure;BME280_temperature;BME280_humidity;BME280_pressure;Samples;Min_cycle;Max_cycle;Signal;HPM_P1;HPM_P2
2023/03/14 00:15:36;;;;;;;0.87;0.80;;;;;;;-141.59;100.00;61776.25;4815770;29;20269;-80
2023/03/14 00:18:03;;;;;;;1.83;1.03;;;;;;;-141.59;100.00;61776.25;4806426;29;20288;-80
2023/03/14 00:20:30;;;;;;;1.60;0.90;;;;;;;-141.59;100.00;61776.25;4802381;29;20206;-79
2023/03/14 00:22:57;;;;;;;1.77;0.70;;;;;;;-141.59;100.00;61776.25;4818993;29;20206;-80
2023/03/14 00:25:24;;;;;;;0.73;0.70;;;;;;;-141.59;100.00;61776.25;4814754;29;20203;-79
2023/03/14 00:27:52;;;;;;;1.07;0.80;;;;;;;-141.59;100.00;61776.25;4799932;29;20240;-80
2023/03/14 00:30:19;;;;;;;0.70;0.70;;;;;;;-141.59;100.00;61776.25;4794913;29;20207;-80
2023/03/14 00:32:48;;;;;;;1.37;0.70;;;;;;;-141.59;100.00;61776.25;4794778;29;20227;-81
2023/03/14 00:35:16;;;;;;;0.90;0.80;;;;;;;-141.59;100.00;61776.25;4817679;29;20207;-81
2023/03/14 00:37:43;;;;;;;0.60;0.60;;;;;;;-141.59;100.00;61776.25;4816708;29;20218;-80
2023/03/14 00:40:11;;;;;;;1.90;0.60;;;;;;;-141.59;100.00;61776.25;4808990;29;20194;-81
2023/03/14 00:42:38;;;;;;;0.70;0.70;;;;;;;-141.59;100.00;61776.25;4803881;29;20222;-80
2023/03/14 00:45:07;;;;;;;0.90;0.63;;;;;;;-141.59;100.00;61776.25;4818730;29;20215;-79
2023/03/14 00:47:34;;;;;;;0.60;0.60;;;;;;;-141.59;100.00;61776.25;4805765;29;20206;-81
2023/03/14 00:50:03;;;;;;;0.77;0.77;;;;;;;-141.59;100.00;61776.25;4814105;29;20210;-80
2023/03/14 00:52:30;;;;;;;0.60;0.60;;;;;;;-141.59;100.00;61776.25;4812623;29;20321;-79
2023/03/14 00:54:57;;;;;;;0.60;0.60;;;;;;;-141.59;100.00;61776.25;4801875;29;20221;-79
2023/03/14 00:57:24;;;;;;;0.60;0.60;;;;;;;-141.59;100.00;61776.25;4796168;29;20222;-79
2023/03/14 00:59:52;;;;;;;1.00;0.80;;;;;;;-141.59;100.00;61776.25;4814694;29;20209;-79
2023/03/14 01:02:19;;;;;;;2.73;0.60;;;;;;;-141.59;100.00;61776.25;4827463;29;20249;-80
2023/03/14 01:04:49;;;;;;;0.70;0.70;;;;;;;-141.59;100.00;61776.25;4806519;29;20233;-80
2023/03/14 01:07:17;;;;;;;0.53;0.53;;;;;;;-141.59;100.00;61776.25;4795827;29;20210;-80
2023/03/14 01:09:44;;;;;;;0.53;0.53;;;;;;;-141.59;100.00;61776.25;4816309;29;20206;-79
2023/03/14 01:12:11;;;;;;;1.53;0.80;;;;;;;-141.59;100.00;61776.25;4806248;29;20236;-80
2023/03/14 01:14:38;;;;;;;0.70;0.70;;;;;;;-141.59;100.00;61776.25;4814260;29;20252;-80
2023/03/14 01:17:06;;;;;;;2.33;1.00;;;;;;;-141.59;100.00;61776.25;4801798;29;20218;-80
2023/03/14 01:19:33;;;;;;;1.53;0.80;;;;;;;-141.59;100.00;61776.25;4785397;29;20210;-81
2023/03/14 01:22:00;;;;;;;0.83;0.80;;;;;;;-141.59;100.00;61776.25;4777586;29;20211;-81
2023/03/14 01:24:28;;;;;;;0.90;0.67;;;;;;;-141.59;100.00;61776.25;4782748;29;20211;-80
2023/03/14 01:26:55;;;;;;;1.23;0.80;;;;;;;-141.59;100.00;61776.25;4798079;29;20212;-79
2023/03/14 01:29:24;;;;;;;1.23;0.70;;;;;;;-141.59;100.00;61776.25;4793543;29;20258;-81
2023/03/14 01:31:51;;;;;;;0.70;0.70;;;;;;;-141.59;100.00;61776.25;4797155;29;20231;-80
2023/03/14 01:34:22;;;;;;;1.80;0.63;;;;;;;-141.59;100.00;61776.25;4797329;29;20207;-80
2023/03/14 01:36:49;;;;;;;0.70;0.70;;;;;;;-141.59;100.00;61776.25;4793836;29;20288;-79
2023/03/14 01:39:17;;;;;;;0.70;0.70;;;;;;;-141.59;100.00;61776.25;4783414;29;20214;-80
2023/03/14 01:41:46;;;;;;;0.60;0.60;;;;;;;-141.59;100.00;61776.25;4788408;29;20215;-81
2023/03/14 01:44:14;;;;;;;1.23;0.80;;;;;;;-141.59;100.00;61776.25;4790993;29;20203;-80
2023/03/14 01:46:42;;;;;;;0.80;0.80;;;;;;;-141.59;100.00;61776.25;4798621;29;20218;-80
2023/03/14 01:49:21;;;;;;;1.50;0.90;;;;;;;-141.59;100.00;61776.25;4783146;29;20214;-81
2023/03/14 01:52:00;;;;;;;0.77;0.77;;;;;;;-141.59;100.00;61776.25;4798263;29;20305;-80
2023/03/14 01:54:32;;;;;;;1.07;0.80;;;;;;;-141.59;100.00;61776.25;4798555;29;20235;-80
2023/03/14 01:57:07;;;;;;;3.27;0.73;;;;;;;-141.59;100.00;61776.25;4798441;29;20219;-81
2023/03/14 01:59:36;;;;;;;1.67;0.80;;;;;;;-141.59;100.00;61776.25;4794875;29;20217;-80
2023/03/14 02:02:07;;;;;;;0.67;0.67;;;;;;;-141.59;100.00;61776.25;4797232;29;20225;-80
2023/03/14 02:04:35;;;;;;;1.60;0.70;;;;;;;-141.59;100.00;61776.25;4791351;29;20280;-81
2023/03/14 02:07:09;;;;;;;2.27;0.80;;;;;;;-141.59;100.00;61776.25;4782861;29;20203;-80
2023/03/14 02:09:42;;;;;;;1.17;0.77;;;;;;;-141.59;100.00;61776.25;4793922;29;20210;-80
2023/03/14 02:12:16;;;;;;;0.80;0.80;;;;;;;-141.59;100.00;61776.25;4787729;29;20231;-80
2023/03/14 02:14:50;;;;;;;0.70;0.70;;;;;;;-141.59;100.00;61776.25;4784832;29;20338;-80
2023/03/14 02:17:43;;;;;;;1.87;0.77;;;;;;;-141.59;100.00;61776.25;4777315;29;20304;-80
2023/03/14 02:20:34;;;;;;;0.60;0.60;;;;;;;-141.59;100.00;61776.25;4780427;29;20204;-80
2023/03/14 02:23:02;;;;;;;0.93;0.80;;;;;;;-141.59;100.00;61776.25;4798524;29;20207;-81
2023/03/14 02:25:41;;;;;;;1.50;0.80;;;;;;;-141.59;100.00;61776.25;4799612;29;20229;-80
2023/03/14 02:28:10;;;;;;;0.60;0.60;;;;;;;-141.59;100.00;61776.25;4785393;29;20230;-81
2023/03/14 02:30:40;;;;;;;0.73;0.70;;;;;;;-141.59;100.00;61776.25;4793842;29;20203;-80
2023/03/14 02:33:10;;;;;;;0.60;0.60;;;;;;;-141.59;100.00;61776.25;4784567;29;20231;-81
2023/03/14 02:35:42;;;;;;;0.60;0.60;;;;;;;-141.59;100.00;61776.25;4804770;29;20226;-80
2023/03/14 02:38:18;;;;;;;2.23;0.73;;;;;;;-141.59;100.00;61776.25;4794486;29;20215;-81
2023/03/14 02:40:46;;;;;;;0.70;0.70;;;;;;;-141.59;100.00;61776.25;4784050;29;20215;-81
2023/03/14 02:43:15;;;;;;;0.60;0.60;;;;;;;-141.59;100.00;61776.25;4785040;29;20204;-81
2023/03/14 02:45:50;;;;;;;1.10;0.60;;;;;;;-141.59;100.00;61776.25;4779027;29;20242;-80
2023/03/14 02:48:23;;;;;;;0.50;0.50;;;;;;;-141.59;100.00;61776.25;4804296;29;20231;-82
2023/03/14 02:50:55;;;;;;;0.73;0.50;;;;;;;-141.59;100.00;61776.25;4801669;29;20297;-81
2023/03/14 02:53:29;;;;;;;1.13;0.60;;;;;;;-141.59;100.00;61776.25;4793834;29;20257;-80
2023/03/14 02:55:59;;;;;;;0.50;0.50;;;;;;;-141.59;100.00;61776.25;4786699;29;20218;-81
2023/03/14 02:58:30;;;;;;;0.53;0.53;;;;;;;-141.59;100.00;61776.25;4798907;29;20222;-80
2023/03/14 03:01:06;;;;;;;0.50;0.50;;;;;;;-141.59;100.00;61776.25;4796037;29;20297;-80
2023/03/14 03:03:34;;;;;;;0.60;0.60;;;;;;;-141.59;100.00;61776.25;4799493;29;20211;-81
2023/03/14 03:06:01;;;;;;;0.60;0.60;;;;;;;-141.59;100.00;61776.25;4787985;29;20203;-81
2023/03/14 03:08:29;;;;;;;0.70;0.70;;;;;;;-141.59;100.00;61776.25;4802248;29;20260;-80
2023/03/14 03:10:59;;;;;;;2.00;0.87;;;;;;;-141.59;100.00;61776.25;4803079;29;20264;-81
2023/03/14 03:13:29;;;;;;;1.00;0.80;;;;;;;-141.59;100.00;61776.25;4790347;29;20244;-80
2023/03/14 03:15:57;;;;;;;1.80;0.80;;;;;;;-141.59;100.00;61776.25;4796476;29;20215;-80
2023/03/14 03:18:24;;;;;;;0.80;0.70;;;;;;;-141.59;100.00;61776.25;4799765;29;20204;-79
2023/03/14 03:20:51;;;;;;;0.70;0.70;;;;;;;-141.59;100.00;61776.25;4793898;29;20253;-80
2023/03/14 03:23:18;;;;;;;0.70;0.70;;;;;;;-141.59;100.00;61776.25;4795743;29;20203;-82
2023/03/14 03:25:50;;;;;;;2.10;0.80;;;;;;;-141.59;100.00;61776.25;4792873;29;20219;-81
2023/03/14 03:28:17;;;;;;;0.73;0.70;;;;;;;-141.59;100.00;61776.25;4796210;29;20211;-81
2023/03/14 03:30:45;;;;;;;1.50;0.80;;;;;;;-141.59;100.00;61776.25;4794152;29;20510;-80
2023/03/14 03:33:13;;;;;;;0.70;0.70;;;;;;;-141.59;100.00;61776.25;4788686;29;20235;-80
2023/03/14 03:35:45;;;;;;;0.83;0.80;;;;;;;-141.59;100.00;61776.25;4782674;29;20207;-81
2023/03/14 03:38:13;;;;;;;0.70;0.70;;;;;;;-141.59;100.00;61776.25;4796190;29;20294;-80
2023/03/14 03:40:40;;;;;;;0.90;0.90;;;;;;;-141.59;100.00;61776.25;4787824;29;20206;-81
2023/03/14 03:43:09;;;;;;;1.77;0.80;;;;;;;-141.59;100.00;61776.25;4793845;29;20212;-79
2023/03/14 03:45:38;;;;;;;0.70;0.70;;;;;;;-141.59;100.00;61776.25;4793985;29;20204;-80
2023/03/14 03:48:08;;;;;;;1.23;0.90;;;;;;;-141.59;100.00;61776.25;4794485;29;20216;-80
2023/03/14 03:50:38;;;;;;;0.60;0.60;;;;;;;-141.59;100.00;61776.25;4799448;29;20224;-80
2023/03/14 03:53:05;;;;;;;0.63;0.63;;;;;;;-141.59;100.00;61776.25;4797409;29;20228;-80
2023/03/14 03:55:32;;;;;;;0.70;0.70;;;;;;;-141.59;100.00;61776.25;4802472;29;20203;-82
2023/03/14 03:57:59;;;;;;;1.37;0.87;;;;;;;-141.59;100.00;61776.25;4793278;29;20235;-81
2023/03/14 04:00:41;;;;;;;2.07;0.80;;;;;;;8.58;100.00;94838.81;5127732;27;20584;-79
2023/03/14 04:03:08;;;;;;;0.97;0.70;;;;;;;8.50;100.00;94840.09;5106535;28;20241;-78
2023/03/14 04:05:36;;;;;;;2.30;0.90;;;;;;;8.47;100.00;94837.91;5108415;28;20192;-79
2023/03/14 04:08:08;;;;;;;3.00;2.03;;;;;;;8.35;100.00;94829.97;5105014;28;20200;-79
2023/03/14 04:10:36;;;;;;;1.83;1.37;;;;;;;8.24;100.00;94828.22;5104681;28;20204;-81
2023/03/14 04:13:07;;;;;;;1.77;1.50;;;;;;;8.19;100.00;94817.41;5104492;28;20200;-80
2023/03/14 04:15:35;;;;;;;1.00;0.80;;;;;;;8.13;100.00;94823.78;5103906;28;20208;-81
2023/03/14 04:18:10;;;;;;;3.67;0.70;;;;;;;8.06;100.00;94827.75;5095327;28;20197;-80
2023/03/14 04:20:37;;;;;;;1.27;0.70;;;;;;;8.05;100.00;94829.63;5123391;27;20242;-81
2023/03/14 04:23:05;;;;;;;0.73;0.73;;;;;;;8.02;100.00;94824.72;5103897;28;20220;-82
2023/03/14 04:25:32;;;;;;;2.63;1.37;;;;;;;7.98;100.00;94820.94;5105968;28;20230;-81
2023/03/14 04:28:04;;;;;;;1.20;1.00;;;;;;;7.99;100.00;94820.66;5097606;28;20199;-81
2023/03/14 04:30:32;;;;;;;0.80;0.80;;;;;;;7.95;100.00;94813.38;5094605;28;20208;-81
2023/03/14 04:33:03;;;;;;;0.93;0.80;;;;;;;7.96;100.00;94798.88;5105246;28;20192;-81
2023/03/14 04:35:34;;;;;;;0.90;0.80;;;;;;;7.89;100.00;94806.31;5105183;28;20204;-82
2023/03/14 04:38:07;;;;;;;1.03;0.93;;;;;;;7.93;100.00;94804.72;5099394;28;20202;-80
2023/03/14 04:40:37;;;;;;;0.73;0.70;;;;;;;7.94;100.00;94800.97;5102643;28;20227;-80
2023/03/14 04:43:07;;;;;;;0.97;0.87;;;;;;;7.96;100.00;94788.94;5104458;28;20201;-82
2023/03/14 04:45:34;;;;;;;1.10;1.00;;;;;;;7.92;100.00;94786.97;5096884;28;20204;-80
2023/03/14 04:48:05;;;;;;;12.73;7.73;;;;;;;7.90;100.00;94779.19;5102476;28;20234;-81
2023/03/14 04:50:34;;;;;;;321.53;254.87;;;;;;;7.88;100.00;94764.38;5119397;27;20244;-81
2023/03/14 04:53:01;;;;;;;437.80;389.13;;;;;;;7.90;100.00;94770.31;5117449;27;20216;-82
2023/03/14 04:55:29;;;;;;;441.50;393.27;;;;;;;7.94;100.00;94766.03;5096516;28;20307;-81
2023/03/14 04:57:57;;;;;;;1.95;1.00;;;;;;;7.85;100.00;94744.19;5102030;28;20208;-80
2023/03/14 05:00:25;;;;;;;2.17;1.33;;;;;;;7.83;100.00;94735.56;5101355;28;20232;-81
2023/03/14 05:03:27;;;;;;;1.83;1.30;;;;;;;7.89;100.00;94717.63;5082721;28;20307;-81
2023/03/14 05:06:18;;;;;;;2.10;1.63;;;;;;;7.88;100.00;94716.81;5096686;28;20197;-81
2023/03/14 05:08:45;;;;;;;1.53;1.30;;;;;;;7.83;100.00;94691.75;5101068;28;20223;-81
2023/03/14 05:11:38;;;;;;;1.47;1.30;;;;;;;7.98;100.00;94705.38;5078204;28;20197;-81
2023/03/14 05:14:25;;;;;;;3.33;1.03;;;;;;;7.98;100.00;94716.13;5089616;28;20223;-81
2023/03/14 05:17:18;;;;;;;2.97;1.23;;;;;;;8.02;100.00;94714.53;5072023;28;20286;-81
2023/03/14 05:19:58;;;;;;;0.93;0.90;;;;;;;8.03;100.00;94724.22;5098319;27;20223;-82
2023/03/14 05:22:46;;;;;;;1.13;1.03;;;;;;;8.05;100.00;94705.16;5094521;28;20298;-82
2023/03/14 05:25:39;;;;;;;3.83;1.20;;;;;;;7.94;100.00;94709.63;5080455;28;20237;-80
2023/03/14 05:28:16;;;;;;;2.03;1.50;;;;;;;7.91;100.00;94705.53;5100100;28;20201;-81
2023/03/14 05:30:54;;;;;;;2.67;1.70;;;;;;;7.92;100.00;94707.16;5086885;28;20256;-82
2023/03/14 05:33:41;;;;;;;2.77;1.40;;;;;;;7.82;100.00;94704.41;5083224;28;20264;-82
2023/03/14 05:36:28;;;;;;;2.63;1.70;;;;;;;7.86;100.00;94697.44;5084957;28;20223;-81
2023/03/14 05:39:12;;;;;;;6.63;3.87;;;;;;;7.83;100.00;94681.81;5084415;28;20209;-80
2023/03/14 05:41:58;;;;;;;3.93;2.73;;;;;;;7.85;100.00;94689.63;5092202;28;20291;-80
2023/03/14 05:44:45;;;;;;;3.10;2.57;;;;;;;7.86;100.00;94675.94;5076664;28;20211;-81
2023/03/14 05:47:24;;;;;;;4.00;2.20;;;;;;;7.90;100.00;94681.66;5104445;27;20217;-82
2023/03/14 05:50:14;;;;;;;2.33;1.90;;;;;;;7.91;100.00;94676.00;5090499;28;20254;-81
2023/03/14 05:52:55;;;;;;;37.87;28.97;;;;;;;7.90;100.00;94674.41;5090457;28;20208;-81
2023/03/14 05:55:39;;;;;;;338.63;268.87;;;;;;;7.92;100.00;94666.88;5084268;28;20244;-81
2023/03/14 05:58:20;;;;;;;1.77;1.50;;;;;;;7.88;100.00;94659.59;5077718;28;20216;-81
2023/03/14 06:00:51;;;;;;;59.67;30.37;;;;;;;7.88;100.00;94659.59;5090809;28;20228;-80
2023/03/14 06:03:31;;;;;;;2.30;1.47;;;;;;;7.93;100.00;94659.63;5089035;28;20219;-81
2023/03/14 06:05:58;;;;;;;184.70;164.87;;;;;;;7.94;100.00;94662.06;5091665;28;20205;-81
2023/03/14 06:08:25;;;;;;;97.90;59.20;;;;;;;7.86;100.00;94653.66;5088070;28;20250;-80
2023/03/14 06:10:54;;;;;;;128.77;91.70;;;;;;;7.89;100.00;94653.16;5088426;28;20273;-81
2023/03/14 06:13:26;;;;;;;3.30;1.77;;;;;;;7.79;100.00;94639.59;5083844;28;20225;-81
2023/03/14 06:15:53;;;;;;;1.70;1.20;;;;;;;7.72;100.00;94636.31;5084071;28;20229;-81
2023/03/14 06:18:20;;;;;;;1.33;1.23;;;;;;;7.70;100.00;94627.69;5086015;28;20238;-81
2023/03/14 06:20:48;;;;;;;5.37;1.90;;;;;;;7.68;100.00;94624.44;5090228;28;20212;-81
2023/03/14 06:23:24;;;;;;;2.80;1.30;;;;;;;7.67;100.00;94622.81;5085547;28;20205;-81
2023/03/14 06:25:51;;;;;;;1.70;1.60;;;;;;;7.62;100.00;94620.09;5085996;28;20230;-81
2023/03/14 06:28:19;;;;;;;3.87;1.73;;;;;;;7.58;100.00;94612.53;5083181;28;20193;-81
2023/03/14 06:30:47;;;;;;;4.87;1.87;;;;;;;7.53;100.00;94617.88;5095882;28;20280;-81
2023/03/14 06:33:15;;;;;;;1.50;1.23;;;;;;;7.51;100.00;94606.56;5089236;28;20199;-81
2023/03/14 06:35:42;;;;;;;1.10;1.00;;;;;;;7.52;100.00;94597.44;5082969;28;20209;-82
2023/03/14 06:38:09;;;;;;;1.97;1.40;;;;;;;7.56;100.00;94601.25;5086137;28;20208;-81
2023/03/14 06:40:36;;;;;;;2.53;1.33;;;;;;;7.62;100.00;94617.41;5084783;28;20223;-81
2023/03/14 06:43:11;;;;;;;1.90;1.20;;;;;;;7.56;100.00;94628.13;5081734;28;20505;-80
2023/03/14 06:45:41;;;;;;;2.83;1.50;;;;;;;7.57;100.00;94629.72;5075695;28;20221;-81
2023/03/14 06:48:08;;;;;;;3.20;2.13;;;;;;;7.54;100.00;94619.50;5086129;28;20201;-82
2023/03/14 06:50:40;;;;;;;3.73;1.77;;;;;;;7.66;100.00;94627.38;5088289;28;20207;-82
2023/03/14 06:53:07;;;;;;;2.60;1.30;;;;;;;7.70;100.00;94630.38;5085512;28;20213;-81
2023/03/14 06:55:38;;;;;;;2.60;1.43;;;;;;;7.77;100.00;94633.66;5089343;28;20197;-81
2023/03/14 06:58:06;;;;;;;2.77;1.60;;;;;;;7.73;100.00;94654.88;5084092;28;20252;-81
2023/03/14 07:00:37;;;;;;;1.63;1.30;;;;;;;7.80;100.00;94650.09;5083674;28;20232;-82
2023/03/14 07:03:06;;;;;;;1.33;1.00;;;;;;;7.91;100.00;94656.41;5101213;28;20197;-82
2023/03/14 07:05:40;;;;;;;2.60;1.60;;;;;;;7.86;100.00;94656.31;5087255;28;20275;-82
2023/03/14 07:08:08;;;;;;;0.80;0.80;;;;;;;7.85;100.00;94658.19;5086897;28;20205;-82
2023/03/14 07:10:35;;;;;;;0.80;0.80;;;;;;;7.79;100.00;94656.53;5085668;28;20200;-82
2023/03/14 07:13:02;;;;;;;0.80;0.80;;;;;;;7.83;100.00;94651.44;5086998;28;20296;-82
2023/03/14 07:15:34;;;;;;;1.03;0.80;;;;;;;7.92;100.00;94666.88;5088165;28;20212;-81
2023/03/14 07:18:07;;;;;;;1.70;0.70;;;;;;;7.94;100.00;94662.06;5078585;28;20205;-82
2023/03/14 07:20:34;;;;;;;1.97;1.00;;;;;;;7.96;100.00;94664.50;5082667;28;20228;-82
2023/03/14 07:23:03;;;;;;;2.60;1.07;;;;;;;8.04;100.00;94655.16;5088310;28;20197;-81
2023/03/14 07:25:56;;;;;;;0.70;0.70;;;;;;;8.08;100.00;94661.66;5085888;28;20219;-81
2023/03/14 07:28:26;;;;;;;1.17;0.90;;;;;;;7.98;100.00;94641.69;5081751;28;20200;-82
2023/03/14 07:31:16;;;;;;;1.17;1.00;;;;;;;8.10;100.00;94643.38;5075387;28;20284;-82
2023/03/14 07:33:44;;;;;;;1.37;1.00;;;;;;;7.97;100.00;94633.88;5080781;28;20205;-81
2023/03/14 07:36:12;;;;;;;1.10;1.10;;;;;;;8.03;100.00;94635.53;5089213;28;20287;-82
2023/03/14 07:38:43;;;;;;;1.17;0.90;;;;;;;8.09;100.00;94647.94;5083563;28;20231;-82
2023/03/14 07:41:34;;;;;;;1.40;1.00;;;;;;;8.22;100.00;94644.03;5079811;28;20239;-82
2023/03/14 07:44:37;;;;;;;0.80;0.80;;;;;;;8.35;100.00;94649.78;4984438;28;20208;-82
2023/03/14 07:47:04;;;;;;;0.77;0.77;;;;;;;8.39;100.00;94651.97;5067127;28;20209;-83
2023/03/14 07:49:33;;;;;;;1.10;1.00;;;;;;;8.42;100.00;94659.53;5081618;28;20265;-82
2023/03/14 07:52:01;;;;;;;3.23;1.87;;;;;;;8.49;100.00;94658.25;5069656;28;20201;-82
2023/03/14 07:54:28;;;;;;;2.87;2.17;;;;;;;8.62;100.00;94663.16;5091187;28;20200;-83
2023/03/14 07:56:55;;;;;;;1.00;1.00;;;;;;;8.68;100.00;94672.88;5087179;28;20238;-82
2023/03/14 07:59:23;;;;;;;2.10;0.90;;;;;;;8.69;100.00;94682.59;5079735;28;20232;-82
2023/03/14 08:01:50;;;;;;;1.90;0.90;;;;;;;8.67;100.00;94668.59;5086932;28;20225;-82
2023/03/14 08:04:17;;;;;;;1.20;1.03;;;;;;;8.78;100.00;94676.72;5088280;28;20193;-82
2023/03/14 08:06:45;;;;;;;8.40;4.80;;;;;;;8.80;100.00;94675.41;5085509;28;20205;-81
2023/03/14 08:09:12;;;;;;;3.47;1.70;;;;;;;8.93;100.00;94692.97;5088789;28;20196;-81
2023/03/14 08:11:39;;;;;;;3.77;1.90;;;;;;;9.01;100.00;94689.78;5084265;28;20204;-82
2023/03/14 08:14:06;;;;;;;2.00;1.30;;;;;;;9.04;100.00;94679.31;5086124;28;20216;-82
2023/03/14 08:16:34;;;;;;;2.00;1.10;;;;;;;9.14;100.00;94696.59;5089666;28;20208;-81
2023/03/14 08:19:01;;;;;;;2.20;1.20;;;;;;;9.13;100.00;94694.97;5081243;28;20206;-79
2023/03/14 08:21:29;;;;;;;3.13;1.30;;;;;;;9.14;100.00;94691.19;5087685;28;20240;-80
2023/03/14 08:23:57;;;;;;;4.80;1.20;;;;;;;9.10;100.00;94670.16;5083857;28;20278;-81
2023/03/14 08:26:25;;;;;;;2.03;1.60;;;;;;;9.14;100.00;94699.28;5081711;28;20273;-80
2023/03/14 08:28:52;;;;;;;21.17;11.27;;;;;;;9.13;100.00;94689.56;5077714;28;20202;-80
2023/03/14 08:31:19;;;;;;;20.07;9.60;;;;;;;9.13;100.00;94694.97;5084084;28;20211;-80
2023/03/14 08:33:46;;;;;;;1.97;1.50;;;;;;;9.16;100.00;94707.91;5084340;28;20196;-82
2023/03/14 08:36:13;;;;;;;1.73;1.43;;;;;;;9.13;100.00;94700.34;5085453;28;20220;-83
2023/03/14 08:38:42;;;;;;;4.03;1.80;;;;;;;9.17;100.00;94704.97;5077807;28;20215;-82
2023/03/14 08:41:11;;;;;;;2.20;1.60;;;;;;;9.24;100.00;94712.78;5079195;28;20217;-82
2023/03/14 08:43:38;;;;;;;1.60;1.50;;;;;;;9.22;100.00;94702.28;5083723;28;20209;-82
2023/03/14 08:46:06;;;;;;;2.10;1.60;;;;;;;9.28;100.00;94709.31;5085692;28;20232;-81
2023/03/14 08:48:33;;;;;;;2.43;1.63;;;;;;;9.34;100.00;94708.28;5085483;28;20301;-81
2023/03/14 08:51:06;;;;;;;4.53;1.73;;;;;;;9.37;100.00;94713.13;5099923;27;20316;-79
2023/03/14 08:53:33;;;;;;;2.97;2.07;;;;;;;9.37;100.00;94698.84;5084666;28;20233;-81
2023/03/14 08:56:01;;;;;;;2.63;2.10;;;;;;;9.43;100.00;94705.91;5085171;28;20209;-80
2023/03/14 08:58:29;;;;;;;2.53;2.10;;;;;;;9.60;100.00;94716.47;5089425;28;20205;-80
2023/03/14 09:00:56;;;;;;;5.77;2.53;;;;;;;9.58;100.00;94705.94;5087271;28;20216;-80
2023/03/14 09:03:23;;;;;;;3.30;2.07;;;;;;;9.63;100.00;94699.75;5087019;28;20208;-81
2023/03/14 09:05:51;;;;;;;3.03;1.83;;;;;;;9.67;100.00;94698.97;5090976;28;20197;-80
2023/03/14 09:08:18;;;;;;;2.40;1.70;;;;;;;9.66;100.00;94707.31;5092408;28;20204;-80
2023/03/14 09:10:45;;;;;;;3.53;1.90;;;;;;;9.86;100.00;94721.69;5086034;28;20204;-81
2023/03/14 09:13:15;;;;;;;2.70;2.00;;;;;;;9.94;100.00;94736.53;5090074;28;20227;-82
2023/03/14 09:15:43;;;;;;;2.63;1.97;;;;;;;9.94;100.00;94716.84;5078146;28;20201;-80
2023/03/14 09:18:10;;;;;;;1.77;1.60;;;;;;;10.08;100.00;94734.13;5091886;28;20220;-80
2023/03/14 09:20:37;;;;;;;2.00;1.70;;;;;;;10.23;100.00;94735.00;5086400;28;20307;-80
2023/03/14 09:23:05;;;;;;;2.30;1.53;;;;;;;10.26;100.00;94743.63;5087720;28;20201;-81
2023/03/14 09:25:32;;;;;;;5.03;2.20;;;;;;;10.19;100.00;94736.63;5083675;28;20206;-81
2023/03/14 09:27:59;;;;;;;1.50;1.30;;;;;;;10.37;100.00;94745.28;5088466;28;20197;-80
2023/03/14 09:30:26;;;;;;;2.23;2.03;;;;;;;10.50;100.00;94753.66;5089115;28;20189;-80
2023/03/14 09:32:56;;;;;;;1.90;1.60;;;;;;;10.47;100.00;94754.19;5090905;28;20197;-81
2023/03/14 09:35:24;;;;;;;1.67;1.57;;;;;;;10.37;100.00;94759.59;5084278;28;20290;-80
2023/03/14 09:37:51;;;;;;;2.63;1.40;;;;;;;10.24;100.00;94760.09;5085666;28;20197;-80
2023/03/14 09:40:20;;;;;;;3.30;1.57;;;;;;;10.31;100.00;94749.84;5088652;28;20193;-80
2023/03/14 09:42:51;;;;;;;2.07;1.50;;;;;;;10.42;100.00;94740.69;5087854;28;20299;-81
2023/03/14 09:45:26;;;;;;;2.50;1.73;;;;;;;10.52;100.00;94751.50;5085598;28;20296;-82
2023/03/14 09:47:56;;;;;;;3.53;1.33;;;;;;;10.55;100.00;94767.16;5084341;28;20283;-82
2023/03/14 09:50:25;;;;;;;2.10;1.40;;;;;;;10.49;100.00;94773.63;5087231;28;20200;-82
2023/03/14 09:53:00;;;;;;;3.03;1.37;;;;;;;10.47;100.00;94770.38;5088951;28;20199;-81
2023/03/14 09:55:27;;;;;;;2.37;1.50;;;;;;;10.53;100.00;94800.91;5081263;28;20223;-82
2023/03/14 09:58:00;;;;;;;3.00;1.70;;;;;;;10.41;100.00;94786.81;5086467;28;20216;-83
2023/03/14 10:00:30;;;;;;;1.67;1.33;;;;;;;10.36;100.00;94792.22;5089867;28;20240;-81
2023/03/14 10:03:06;;;;;;;3.00;1.50;;;;;;;10.33;100.00;94809.75;5085016;28;20216;-82
2023/03/14 10:05:34;;;;;;;1.47;1.17;;;;;;;10.21;100.00;94804.56;5074574;28;20219;-83
2023/03/14 10:08:01;;;;;;;2.40;1.03;;;;;;;10.24;100.00;94803.25;5079877;28;20193;-82
2023/03/14 10:10:28;;;;;;;2.93;1.20;;;;;;;10.24;100.00;94808.63;5088084;28;20213;-82
2023/03/14 10:13:00;;;;;;;2.60;1.30;;;;;;;10.21;100.00;94811.84;5077135;28;20206;-81
2023/03/14 10:15:31;;;;;;;1.27;1.17;;;;;;;10.19;100.00;94808.63;5079307;28;20259;-82
2023/03/14 10:18:01;;;;;;;1.77;1.20;;;;;;;10.08;100.00;94813.16;5087540;28;20296;-82
2023/03/14 10:20:35;;;;;;;2.27;1.30;;;;;;;10.06;100.00;94817.19;5087350;28;20255;-82
2023/03/14 10:23:04;;;;;;;2.03;1.43;;;;;;;9.98;100.00;94823.06;5085958;28;20258;-82
2023/03/14 10:25:33;;;;;;;2.00;1.47;;;;;;;9.91;100.00;94809.03;5083488;28;20281;-82
2023/03/14 10:28:00;;;;;;;2.20;1.23;;;;;;;9.93;100.00;94814.97;5089037;28;20197;-81
2023/03/14 10:30:46;;;;;;;3.30;1.40;;;;;;;9.85;100.00;94813.59;5085826;28;20188;-83
2023/03/14 10:33:22;;;;;;;1.97;1.60;;;;;;;9.90;100.00;94816.31;5087111;28;20276;-82
2023/03/14 10:35:55;;;;;;;1.57;1.40;;;;;;;9.87;100.00;94820.31;5088110;28;20204;-82
2023/03/14 10:38:26;;;;;;;2.60;1.37;;;;;;;9.69;100.00;94817.28;5087266;28;20209;-82
2023/03/14 10:40:55;;;;;;;1.20;1.10;;;;;;;9.57;100.00;94830.97;5085706;28;20221;-82
2023/03/14 10:43:26;;;;;;;2.63;1.43;;;;;;;9.60;100.00;94818.88;5082618;28;20220;-82
2023/03/14 10:45:57;;;;;;;1.97;1.40;;;;;;;9.73;100.00;94829.97;5090503;28;20196;-82
2023/03/14 10:48:32;;;;;;;1.40;1.30;;;;;;;9.80;100.00;94830.53;5083349;28;20262;-82
2023/03/14 10:51:08;;;;;;;11.20;6.13;;;;;;;9.96;100.00;94827.91;5075854;28;20221;-83
2023/03/14 10:53:43;;;;;;;2.73;1.80;;;;;;;10.15;100.00;94834.47;5083560;28;20200;-83
2023/03/14 10:56:15;;;;;;;2.07;1.50;;;;;;;10.39;100.00;94854.53;5085680;28;20258;-83
2023/03/14 10:58:44;;;;;;;1.60;1.33;;;;;;;10.35;100.00;94872.34;5087031;28;20251;-83
2023/03/14 11:01:39;;;;;;;1.30;1.20;;;;;;;10.29;100.00;94861.81;5082603;28;20280;-82
2023/03/14 11:04:21;;;;;;;2.60;1.40;;;;;;;10.14;100.00;94852.53;5079559;28;20205;-83
2023/03/14 11:06:58;;;;;;;1.60;1.23;;;;;;;10.04;100.00;94867.84;5087186;28;20254;-82
2023/03/14 11:09:33;;;;;;;2.50;1.30;;;;;;;9.75;100.00;94862.88;5087175;28;20231;-82
2023/03/14 11:12:13;;;;;;;2.10;1.10;;;;;;;9.83;100.00;94869.66;5081482;28;20203;-82
2023/03/14 11:14:47;;;;;;;1.37;1.17;;;;;;;9.80;100.00;94872.84;5080327;28;20247;-83
2023/03/14 11:17:22;;;;;;;1.77;1.23;;;;;;;9.79;100.00;94899.00;5081618;28;20189;-83
2023/03/14 11:20:04;;;;;;;1.23;1.13;;;;;;;9.86;100.00;94894.22;5070995;28;20205;-82
2023/03/14 11:22:40;;;;;;;1.73;1.10;;;;;;;9.86;100.00;94891.53;5081277;28;20221;-82
2023/03/14 11:25:19;;;;;;;1.17;1.07;;;;;;;9.90;100.00;94889.09;5088227;28;20207;-83
2023/03/14 11:27:53;;;;;;;1.27;1.17;;;;;;;9.84;100.00;94904.44;5073416;28;20233;-82
2023/03/14 11:30:33;;;;;;;1.87;1.00;;;;;;;9.71;100.00;94918.34;5091564;28;20258;-82
2023/03/14 11:33:06;;;;;;;1.40;1.30;;;;;;;9.66;100.00;94904.03;5083497;28;20228;-82
2023/03/14 11:35:40;;;;;;;1.63;1.07;;;;;;;9.59;100.00;94904.28;5079295;28;20259;-83
2023/03/14 11:38:21;;;;;;;1.37;1.27;;;;;;;9.67;100.00;94919.16;5097770;28;20292;-82
2023/03/14 11:40:51;;;;;;;2.50;1.50;;;;;;;9.67;100.00;94932.63;5078990;28;20201;-82
2023/03/14 11:43:22;;;;;;;1.37;0.90;;;;;;;9.63;100.00;94926.94;5087154;28;20197;-83
2023/03/14 11:45:52;;;;;;;1.50;1.13;;;;;;;9.57;100.00;94938.75;5084095;28;20262;-83
2023/03/14 11:48:30;;;;;;;2.77;1.50;;;;;;;9.57;100.00;94933.34;5081864;28;20197;-82
2023/03/14 11:51:00;;;;;;;1.30;1.20;;;;;;;9.55;100.00;94940.06;5084673;28;20260;-82
2023/03/14 11:53:57;;;;;;;4.80;1.97;;;;;;;9.44;100.00;94941.88;5085577;28;20216;-82
2023/03/14 11:56:35;;;;;;;2.17;1.50;;;;;;;9.33;100.00;94949.06;5070380;28;20209;-80
2023/03/14 11:59:06;;;;;;;2.33;1.43;;;;;;;9.38;100.00;94953.66;5087241;28;20225;-81